Time;durP1;ratioP1;P1;durP2;ratioP2;P2;SDS_P1;SDS_P2;PMS_P1;PMS_P2;Temp;Humidity;BMP_temperature;BMP_pressure;BME280_temperature;BME280_humidity;BME280_pressure;Samples;Min_cycle;Max_cycle;Signal;HPM_P1;HPM_P2
2023/07/01 00:02:08;;;;;;;6.05;3.53;;;;;;;;;;5030929;28;20025;-74
2023/07/01 00:04:34;;;;;;;4.07;2.85;;;;;;;;;;5004771;28;20134;-74
2023/07/01 00:07:00;;;;;;;6.05;3.10;;;;;;;;;;5000548;28;20517;-74
2023/07/01 00:09:26;;;;;;;5.93;3.40;;;;;;;;;;5014753;28;20214;-74
2023/07/01 00:11:53;;;;;;;5.22;2.97;;;;;;;;;;5031369;28;20104;-74
2023/07/01 00:14:19;;;;;;;6.22;3.60;;;;;;;;;;5023764;28;20457;-74
2023/07/01 00:16:45;;;;;;;3.50;3.13;;;;;;;;;;5023614;28;20027;-73
2023/07/01 00:19:11;;;;;;;4.07;3.20;;;;;;;;;;5005313;28;20018;-74
2023/07/01 00:21:37;;;;;;;5.50;3.22;;;;;;;;;;5018273;28;20024;-74
2023/07/01 00:24:03;;;;;;;4.95;2.80;;;;;;;;;;5023022;28;20038;-73
2023/07/01 00:26:29;;;;;;;5.25;2.88;;;;;;;;;;5027608;28;20050;-73
2023/07/01 00:28:55;;;;;;;4.32;3.20;;;;;;;;;;5024887;28;20022;-73
2023/07/01 00:31:21;;;;;;;5.60;2.90;;;;;;;;;;5016612;28;20026;-73
2023/07/01 00:33:47;;;;;;;7.55;3.03;;;;;;;;;;5014751;28;20030;-73
2023/07/01 00:36:13;;;;;;;5.22;2.75;;;;;;;;;;5018145;28;20143;-73
2023/07/01 00:38:39;;;;;;;9.13;3.08;;;;;;;;;;5033866;28;20483;-73
2023/07/01 00:41:05;;;;;;;7.10;3.00;;;;;;;;;;5016264;28;20018;-73
2023/07/01 00:43:31;;;;;;;5.97;2.92;;;;;;;;;;5024626;28;20029;-77
2023/07/01 00:45:57;;;;;;;6.45;3.58;;;;;;;;;;5018561;28;20042;-74
2023/07/01 00:48:25;;;;;;;9.43;3.22;;;;;;;;;;5022863;28;20029;-74
2023/07/01 00:50:51;;;;;;;6.82;2.63;;;;;;;;;;5013893;28;20053;-74
2023/07/01 00:53:18;;;;;;;5.30;3.22;;;;;;;;;;5013569;28;20030;-74
2023/07/01 00:55:44;;;;;;;8.77;3.33;;;;;;;;;;5009422;28;20034;-74
2023/07/01 00:58:10;;;;;;;5.22;2.75;;;;;;;;;;5017038;28;20049;-74
2023/07/01 01:00:36;;;;;;;5.88;2.50;;;;;;;;;;5020215;28;20056;-74
2023/07/01 01:03:15;;;;;;;4.85;2.72;;;;;;;;;;5033390;28;20104;-74
2023/07/01 01:05:49;;;;;;;3.90;2.60;;;;;;;;;;5032688;28;20516;-74
2023/07/01 01:08:18;;;;;;;6.10;2.95;;;;;;;;;;5018536;28;20029;-74
2023/07/01 01:10:47;;;;;;;4.40;2.70;;;;;;;;;;5013560;28;20029;-74
2023/07/01 01:13:13;;;;;;;6.03;2.95;;;;;;;;;;5025497;28;20017;-74
2023/07/01 01:15:39;;;;;;;2.90;2.60;;;;;;;;;;5013370;28;20026;-74
2023/07/01 01:18:06;;;;;;;3.40;2.58;;;;;;;;;;5027680;28;20025;-74
2023/07/01 01:20:33;;;;;;;4.20;2.90;;;;;;;;;;5033025;28;20029;-74
2023/07/01 01:23:04;;;;;;;4.47;2.95;;;;;;;;;;5017694;28;20018;-74
2023/07/01 01:25:35;;;;;;;3.38;2.40;;;;;;;;;;5022530;28;20064;-74
2023/07/01 01:28:01;;;;;;;4.22;2.88;;;;;;;;;;5016184;28;20033;-74
2023/07/01 01:30:33;;;;;;;5.07;2.50;;;;;;;;;;5013125;28;20036;-74
2023/07/01 01:33:00;;;;;;;4.70;3.30;;;;;;;;;;5017183;28;20071;-74
2023/07/01 01:35:27;;;;;;;3.80;3.10;;;;;;;;;;5032610;28;20030;-74
2023/07/01 01:37:58;;;;;;;5.85;3.33;;;;;;;;;;5014868;28;20093;-74
2023/07/01 01:40:34;;;;;;;6.65;3.47;;;;;;;;;;5025766;28;20025;-74
2023/07/01 01:43:23;;;;;;;4.35;2.92;;;;;;;;;;5026248;28;20030;-74
2023/07/01 01:45:49;;;;;;;7.20;3.67;;;;;;;;;;5016199;28;20042;-74
2023/07/01 01:48:15;;;;;;;7.30;3.20;;;;;;;;;;5032095;28;20468;-74
2023/07/01 01:50:42;;;;;;;5.10;3.08;;;;;;;;;;5029065;28;20026;-74
2023/07/01 01:53:10;;;;;;;5.40;3.10;;;;;;;;;;5023416;28;20368;-74
2023/07/01 01:55:36;;;;;;;3.80;3.03;;;;;;;;;;5015170;28;20484;-74
2023/07/01 01:58:02;;;;;;;4.05;2.78;;;;;;;;;;5011564;28;20058;-74
2023/07/01 02:00:28;;;;;;;4.47;3.30;;;;;;;;;;5012135;28;20049;-73
2023/07/01 02:02:55;;;;;;;5.15;3.20;;;;;;;;;;5024065;28;20083;-74
2023/07/01 02:05:21;;;;;;;7.35;3.70;;;;;;;;;;5028191;28;20034;-74
2023/07/01 02:07:47;;;;;;;4.63;3.63;;;;;;;;;;5023387;28;20400;-74
2023/07/01 02:10:13;;;;;;;3.65;3.35;;;;;;;;;;5019016;28;20067;-74
2023/07/01 02:12:39;;;;;;;5.63;4.05;;;;;;;;;;5032507;28;20025;-74
2023/07/01 02:15:05;;;;;;;4.63;3.65;;;;;;;;;;5031076;28;20036;-74
2023/07/01 02:17:31;;;;;;;5.30;3.95;;;;;;;;;;5032071;28;20036;-74
2023/07/01 02:19:58;;;;;;;4.18;3.78;;;;;;;;;;5032126;28;20029;-74
2023/07/01 02:22:24;;;;;;;4.50;4.10;;;;;;;;;;5032552;28;20061;-74
2023/07/01 02:24:50;;;;;;;4.72;4.18;;;;;;;;;;5019055;28;20065;-74
2023/07/01 02:27:16;;;;;;;5.10;4.60;;;;;;;;;;5021336;28;20375;-74
2023/07/01 02:29:44;;;;;;;5.10;4.60;;;;;;;;;;5016738;28;20033;-74
2023/07/01 02:32:10;;;;;;;5.53;4.70;;;;;;;;;;5032628;28;20356;-74
2023/07/01 02:34:36;;;;;;;6.30;4.50;;;;;;;;;;5014138;28;20472;-74
2023/07/01 02:37:02;;;;;;;5.72;5.10;;;;;;;;;;5012705;28;20036;-74
2023/07/01 02:39:28;;;;;;;8.02;5.22;;;;;;;;;;5012345;28;20068;-74
2023/07/01 02:41:54;;;;;;;7.72;4.68;;;;;;;;;;5012049;28;20058;-74
2023/07/01 02:44:20;;;;;;;4.85;4.35;;;;;;;;;;4994694;28;20022;-74
2023/07/01 02:46:46;;;;;;;7.25;5.28;;;;;;;;;;4992583;28;20504;-74
2023/07/01 02:49:12;;;;;;;5.57;4.68;;;;;;;;;;4997514;28;20025;-74
2023/07/01 02:51:38;;;;;;;6.03;4.75;;;;;;;;;;5012244;28;20108;-74
2023/07/01 02:54:04;;;;;;;5.93;4.97;;;;;;;;;;5010955;28;20476;-74
2023/07/01 02:56:30;;;;;;;5.15;4.53;;;;;;;;;;5000524;28;20541;-74
2023/07/01 02:58:57;;;;;;;6.05;4.97;;;;;;;;;;5010761;28;20049;-74
2023/07/01 03:01:24;;;;;;;6.38;5.05;;;;;;;;;;5012449;28;20472;-74
2023/07/01 03:03:51;;;;;;;6.53;5.57;;;;;;;;;;5012198;28;20034;-74
2023/07/01 03:06:17;;;;;;;5.80;5.20;;;;;;;;;;5012341;28;20030;-74
2023/07/01 03:08:43;;;;;;;7.60;5.60;;;;;;;;;;5012455;28;20030;-74
2023/07/01 03:11:09;;;;;;;6.40;5.35;;;;;;;;;;5012065;28;20092;-74
2023/07/01 03:13:37;;;;;;;6.00;5.35;;;;;;;;;;5016680;28;20632;-74
2023/07/01 03:16:03;;;;;;;8.30;5.47;;;;;;;;;;5032022;28;20044;-74
2023/07/01 03:18:29;;;;;;;5.93;5.28;;;;;;;;;;5025077;28;20033;-74
2023/07/01 03:20:57;;;;;;;5.97;5.38;;;;;;;;;;5012000;28;20030;-74
2023/07/01 03:23:23;;;;;;;5.47;4.97;;;;;;;;;;4993362;28;20102;-74
2023/07/01 03:25:49;;;;;;;5.90;5.07;;;;;;;;;;4992315;28;20121;-74
2023/07/01 03:28:15;;;;;;;5.80;5.10;;;;;;;;;;4998275;28;20093;-74
2023/07/01 03:30:41;;;;;;;6.10;5.50;;;;;;;;;;5015435;28;20034;-74
2023/07/01 03:33:08;;;;;;;5.80;5.10;;;;;;;;;;5020655;28;20017;-74
2023/07/01 03:35:34;;;;;;;7.05;5.57;;;;;;;;;;5023305;28;20480;-74
2023/07/01 03:38:00;;;;;;;5.72;5.00;;;;;;;;;;5015861;28;20492;-74
2023/07/01 03:40:27;;;;;;;5.68;5.15;;;;;;;;;;5027318;28;20040;-74
2023/07/01 03:42:53;;;;;;;6.43;5.20;;;;;;;;;;5034842;28;20108;-74
2023/07/01 03:45:19;;;;;;;7.25;5.82;;;;;;;;;;5034747;28;20040;-74
2023/07/01 03:47:46;;;;;;;7.20;5.35;;;;;;;;;;5028526;28;20771;-74
2023/07/01 03:50:12;;;;;;;8.73;6.22;;;;;;;;;;5015011;28;20014;-74
2023/07/01 03:52:38;;;;;;;7.60;6.10;;;;;;;;;;4995403;28;20088;-74
2023/07/01 03:55:05;;;;;;;7.28;5.53;;;;;;;;;;4995226;28;20045;-74
2023/07/01 03:57:31;;;;;;;7.63;5.65;;;;;;;;;;4992483;28;20054;-74
2023/07/01 03:59:57;;;;;;;6.43;5.53;;;;;;;;;;4995492;28;20027;-74
2023/07/01 04:02:23;;;;;;;5.90;5.05;;;;;;;;;;5034548;28;20389;-74
2023/07/01 04:04:49;;;;;;;6.95;5.68;;;;;;;;;;5034355;28;20083;-74
2023/07/01 04:07:17;;;;;;;6.40;5.45;;;;;;;;;;5014537;28;20653;-74
2023/07/01 04:09:43;;;;;;;6.00;4.90;;;;;;;;;;5028113;28;20028;-74
2023/07/01 04:12:10;;;;;;;6.82;5.07;;;;;;;;;;5014990;28;20377;-74
2023/07/01 04:14:36;;;;;;;5.43;4.93;;;;;;;;;;5014783;28;20053;-74
2023/07/01 04:17:09;;;;;;;6.00;5.03;;;;;;;;;;5007955;28;20052;-74
2023/07/01 04:19:35;;;;;;;7.13;5.47;;;;;;;;;;5020460;28;20057;-74
2023/07/01 04:22:01;;;;;;;5.68;4.93;;;;;;;;;;5027043;28;20025;-74
2023/07/01 04:24:27;;;;;;;6.90;5.28;;;;;;;;;;5014271;28;20037;-74
2023/07/01 04:26:53;;;;;;;15.40;6.10;;;;;;;;;;5006599;28;20042;-74
2023/07/01 04:29:19;;;;;;;6.00;4.95;;;;;;;;;;4995692;28;20101;-74
2023/07/01 04:31:45;;;;;;;6.45;5.80;;;;;;;;;;5021915;28;20056;-74
2023/07/01 04:34:11;;;;;;;6.25;5.60;;;;;;;;;;5033247;28;20021;-74
2023/07/01 04:36:37;;;;;;;6.72;4.68;;;;;;;;;;5026391;28;20483;-74
2023/07/01 04:39:03;;;;;;;5.57;4.97;;;;;;;;;;5014344;28;20034;-74
2023/07/01 04:41:32;;;;;;;6.13;4.65;;;;;;;;;;5014019;28;20362;-74
2023/07/01 04:43:58;;;;;;;4.88;4.45;;;;;;;;;;5027317;28;20017;-74
2023/07/01 04:46:24;;;;;;;7.35;4.47;;;;;;;;;;5021888;28;20151;-74
2023/07/01 04:48:50;;;;;;;4.43;3.53;;;;;;;;;;5018983;28;20022;-74
2023/07/01 04:51:16;;;;;;;2.80;2.53;;;;;;;;;;5033650;28;20530;-74
2023/07/01 04:53:42;;;;;;;4.07;2.70;;;;;;;;;;5018502;28;20030;-74
2023/07/01 04:56:08;;;;;;;2.95;2.67;;;;;;;;;;5013626;28;20109;-75
2023/07/01 04:58:34;;;;;;;2.92;2.63;;;;;;;;;;5013678;28;20029;-74
2023/07/01 05:01:00;;;;;;;2.78;2.58;;;;;;;;;;5013640;28;20354;-74
2023/07/01 05:03:26;;;;;;;2.63;2.42;;;;;;;;;;5013760;28;20034;-74
2023/07/01 05:05:52;;;;;;;3.40;2.92;;;;;;;;;;5013575;28;20033;-74
2023/07/01 05:08:18;;;;;;;2.60;2.40;;;;;;;;;;5014829;28;20069;-74
2023/07/01 05:10:45;;;;;;;2.53;2.10;;;;;;;;;;5024948;28;20412;-74
2023/07/01 05:13:11;;;;;;;2.25;1.88;;;;;;;;;;5024594;28;20453;-74
2023/07/01 05:15:38;;;;;;;5.18;2.50;;;;;;;;;;5013499;28;20044;-74
2023/07/01 05:18:04;;;;;;;3.17;1.80;;;;;;;;;;5026492;28;20010;-75
2023/07/01 05:20:30;;;;;;;2.80;1.98;;;;;;;;;;5011601;28;20463;-74
2023/07/01 05:22:56;;;;;;;2.42;1.90;;;;;;;;;;4993625;28;20088;-74
2023/07/01 05:25:22;;;;;;;2.60;1.83;;;;;;;;;;4993592;28;20369;-74
2023/07/01 05:27:48;;;;;;;3.22;1.98;;;;;;;;;;4995213;28;20451;-75
2023/07/01 05:30:14;;;;;;;1.67;1.40;;;;;;;;;;5014609;28;20025;-74
2023/07/01 05:32:40;;;;;;;3.15;1.92;;;;;;;;;;5031098;28;20369;-74
2023/07/01 05:35:06;;;;;;;1.40;1.30;;;;;;;;;;5014695;28;20537;-74
2023/07/01 05:37:32;;;;;;;1.55;1.10;;;;;;;;;;5031310;28;20022;-74
2023/07/01 05:39:58;;;;;;;2.92;1.13;;;;;;;;;;5014982;28;20022;-74
2023/07/01 05:42:24;;;;;;;3.88;1.23;;;;;;;;;;5019514;28;20105;-74
2023/07/01 05:44:50;;;;;;;2.00;1.13;;;;;;;;;;5032606;28;20132;-75
2023/07/01 05:47:16;;;;;;;2.25;0.93;;;;;;;;;;5032627;28;20029;-74
2023/07/01 05:49:42;;;;;;;3.08;1.02;;;;;;;;;;5017331;28;20029;-74
2023/07/01 05:52:08;;;;;;;1.35;1.08;;;;;;;;;;5012315;28;20037;-74
2023/07/01 05:54:34;;;;;;;1.85;1.40;;;;;;;;;;5012829;28;20030;-74
2023/07/01 05:57:00;;;;;;;2.22;1.10;;;;;;;;;;5013143;28;20061;-74
2023/07/01 05:59:26;;;;;;;4.72;1.00;;;;;;;;;;5032461;28;20109;-75
2023/07/01 06:01:52;;;;;;;4.57;1.00;;;;;;;;;;5030503;28;20026;-75
2023/07/01 06:04:18;;;;;;;1.75;0.80;;;;;;;;;;5012593;28;20053;-74
2023/07/01 06:06:44;;;;;;;2.13;0.70;;;;;;;;;;5025886;28;20472;-74
2023/07/01 06:09:10;;;;;;;2.08;0.60;;;;;;;;;;5012715;28;20026;-74
2023/07/01 06:11:37;;;;;;;0.90;0.80;;;;;;;;;;5014051;28;20089;-74
2023/07/01 06:14:03;;;;;;;1.95;0.75;;;;;;;;;;5030577;28;20060;-74
2023/07/01 06:16:28;;;;;;;1.45;0.70;;;;;;;;;;5031854;28;20056;-74
2023/07/01 06:18:55;;;;;;;1.70;0.63;;;;;;;;;;5032039;28;20097;-74
2023/07/01 06:21:21;;;;;;;1.20;0.77;;;;;;;;;;5027962;28;20038;-74
2023/07/01 06:23:47;;;;;;;2.08;0.68;;;;;;;;;;5021353;28;20080;-74
2023/07/01 06:26:13;;;;;;;2.72;0.80;;;;;;;;;;5031633;28;20463;-75
2023/07/01 06:28:39;;;;;;;0.95;0.85;;;;;;;;;;5003363;28;20024;-75
2023/07/01 06:31:06;;;;;;;1.50;1.00;;;;;;;;;;5014564;28;20041;-75
2023/07/01 06:33:37;;;;;;;1.45;0.93;;;;;;;;;;5010322;28;20076;-74
2023/07/01 06:36:03;;;;;;;1.90;0.95;;;;;;;;;;5013941;28;20049;-75
2023/07/01 06:38:29;;;;;;;4.82;1.10;;;;;;;;;;5022304;28;20496;-75
2023/07/01 06:40:55;;;;;;;1.83;1.17;;;;;;;;;;5028806;28;20079;-75
2023/07/01 06:43:21;;;;;;;1.25;0.75;;;;;;;;;;5021575;28;20026;-72
2023/07/01 06:45:48;;;;;;;2.30;1.02;;;;;;;;;;5012077;28;20030;-73
2023/07/01 06:48:14;;;;;;;1.25;0.80;;;;;;;;;;5012594;28;20030;-74
2023/07/01 06:50:40;;;;;;;0.60;0.60;;;;;;;;;;5012139;28;20049;-74
2023/07/01 06:53:06;;;;;;;1.70;0.80;;;;;;;;;;5022425;28;20049;-74
2023/07/01 06:55:32;;;;;;;3.60;0.80;;;;;;;;;;5028138;28;20461;-74
2023/07/01 06:58:02;;;;;;;1.20;0.63;;;;;;;;;;5011778;28;20041;-74
2023/07/01 07:00:29;;;;;;;1.92;0.57;;;;;;;;;;5012314;28;20076;-74
2023/07/01 07:02:55;;;;;;;0.63;0.60;;;;;;;;;;5012171;28;20029;-74
2023/07/01 07:05:21;;;;;;;0.80;0.50;;;;;;;;;;5015286;28;20022;-74
2023/07/01 07:07:47;;;;;;;0.40;0.40;;;;;;;;;;5015687;28;20113;-74
2023/07/01 07:10:13;;;;;;;0.60;0.45;;;;;;;;;;5015219;28;20030;-74
2023/07/01 07:12:39;;;;;;;2.08;0.60;;;;;;;;;;5015299;28;20030;-75
2023/07/01 07:15:06;;;;;;;1.15;0.60;;;;;;;;;;5028552;28;20733;-74
2023/07/01 07:17:33;;;;;;;0.90;0.60;;;;;;;;;;5015607;28;20453;-74
2023/07/01 07:19:59;;;;;;;0.80;0.60;;;;;;;;;;5015663;28;20068;-74
2023/07/01 07:22:25;;;;;;;1.25;0.50;;;;;;;;;;5025093;28;20447;-74
2023/07/01 07:24:51;;;;;;;1.08;0.57;;;;;;;;;;5021584;28;20377;-74
2023/07/01 07:27:17;;;;;;;1.25;0.68;;;;;;;;;;5015480;28;20038;-74
2023/07/01 07:29:43;;;;;;;2.85;0.90;;;;;;;;;;5014186;28;20040;-74
2023/07/01 07:32:09;;;;;;;1.00;0.80;;;;;;;;;;5015198;28;20045;-75
2023/07/01 07:34:35;;;;;;;1.17;0.70;;;;;;;;;;5014982;28;20346;-74
2023/07/01 07:37:01;;;;;;;3.33;0.77;;;;;;;;;;5027447;28;20032;-74
2023/07/01 07:39:27;;;;;;;1.88;0.85;;;;;;;;;;5022057;28;20026;-75
2023/07/01 07:41:53;;;;;;;2.20;0.90;;;;;;;;;;5011676;28;20037;-74
2023/07/01 07:44:19;;;;;;;2.42;0.93;;;;;;;;;;5015068;28;20026;-74
2023/07/01 07:46:46;;;;;;;1.90;0.80;;;;;;;;;;4999278;28;20031;-75
2023/07/01 07:49:11;;;;;;;1.48;0.80;;;;;;;;;;4995666;28;20531;-75
2023/07/01 07:51:38;;;;;;;2.90;0.93;;;;;;;;;;5001232;28;20082;-75
2023/07/01 07:54:04;;;;;;;0.95;0.80;;;;;;;;;;5026309;28;20096;-75
2023/07/01 07:56:30;;;;;;;1.75;1.05;;;;;;;;;;5013211;28;20174;-75
2023/07/01 07:58:56;;;;;;;2.25;0.90;;;;;;;;;;5008364;28;20477;-74
2023/07/01 08:01:22;;;;;;;1.73;1.30;;;;;;;;;;4998279;28;20025;-75
2023/07/01 08:03:54;;;;;;;2.33;1.42;;;;;;;;;;5020086;28;20022;-75
2023/07/01 08:06:20;;;;;;;2.00;1.70;;;;;;;;;;5004720;28;20108;-75
2023/07/01 08:08:47;;;;;;;3.50;1.73;;;;;;;;;;5008011;28;20069;-74
2023/07/01 08:11:14;;;;;;;2.53;1.55;;;;;;;;;;5000137;28;20097;-74
2023/07/01 08:13:40;;;;;;;1.77;1.50;;;;;;;;;;5009343;28;20034;-74
2023/07/01 08:16:06;;;;;;;2.00;1.77;;;;;;;;;;5001223;28;20041;-74
2023/07/01 08:18:32;;;;;;;4.07;1.55;;;;;;;;;;4999955;28;20038;-74
2023/07/01 08:20:58;;;;;;;1.67;1.30;;;;;;;;;;5018622;28;20030;-74
2023/07/01 08:23:24;;;;;;;2.38;1.30;;;;;;;;;;5007056;28;20022;-74
2023/07/01 08:25:50;;;;;;;2.10;1.38;;;;;;;;;;5028253;28;20087;-74
2023/07/01 08:28:16;;;;;;;2.35;1.48;;;;;;;;;;4994853;28;20557;-74
2023/07/01 08:30:42;;;;;;;3.78;1.58;;;;;;;;;;5007352;28;20113;-74
2023/07/01 08:33:09;;;;;;;2.60;1.90;;;;;;;;;;5020414;28;20092;-74
2023/07/01 08:35:34;;;;;;;2.80;1.77;;;;;;;;;;5021369;28;20026;-74
2023/07/01 08:38:00;;;;;;;2.47;2.20;;;;;;;;;;5018022;28;20033;-74
2023/07/01 08:40:27;;;;;;;3.95;2.65;;;;;;;;;;5013971;28;20101;-74
2023/07/01 08:42:59;;;;;;;4.57;2.90;;;;;;;;;;5014149;28;20113;-74
2023/07/01 08:45:25;;;;;;;4.88;3.22;;;;;;;;;;5013368;28;20034;-74
2023/07/01 08:47:54;;;;;;;6.18;3.83;;;;;;;;;;4994194;28;20030;-73
2023/07/01 08:50:20;;;;;;;7.10;3.42;;;;;;;;;;4994861;28;20038;-73
2023/07/01 08:52:47;;;;;;;7.55;3.95;;;;;;;;;;5007288;28;20037;-73
2023/07/01 08:55:14;;;;;;;4.65;3.63;;;;;;;;;;5032741;28;20030;-74
2023/07/01 08:57:40;;;;;;;5.30;3.22;;;;;;;;;;5015265;28;20730;-73
2023/07/01 09:00:08;;;;;;;7.57;3.83;;;;;;;;;;5032404;28;20075;-74
2023/07/01 09:02:34;;;;;;;8.18;4.00;;;;;;;;;;5013800;28;20022;-74
2023/07/01 09:05:00;;;;;;;5.53;4.35;;;;;;;;;;5020397;28;20029;-73
2023/07/01 09:07:26;;;;;;;5.60;3.90;;;;;;;;;;5026910;28;20096;-74
2023/07/01 09:09:52;;;;;;;4.35;2.80;;;;;;;;;;5005952;28;20092;-74
2023/07/01 09:12:18;;;;;;;3.53;2.90;;;;;;;;;;5020708;28;20038;-74
2023/07/01 09:15:04;;;;;;;3.90;3.25;;;;;;;;;;5013513;28;20026;-74
2023/07/01 09:17:32;;;;;;;4.75;3.88;;;;;;;;;;5013311;28;20037;-73
2023/07/01 09:19:59;;;;;;;8.73;3.92;;;;;;;;;;5017457;28;20053;-73
2023/07/01 09:22:32;;;;;;;7.32;3.85;;;;;;;;;;5022088;28;20045;-74
2023/07/01 09:24:58;;;;;;;4.32;3.53;;;;;;;;;;5013197;28;20030;-74
2023/07/01 09:27:25;;;;;;;5.13;3.38;;;;;;;;;;5012654;28;20022;-74
2023/07/01 09:29:52;;;;;;;3.92;3.53;;;;;;;;;;5013085;28;20046;-74
2023/07/01 09:32:28;;;;;;;5.47;3.78;;;;;;;;;;5025567;28;20030;-73
2023/07/01 09:34:57;;;;;;;5.15;4.05;;;;;;;;;;4993430;28;20026;-74
2023/07/01 09:37:23;;;;;;;5.80;4.65;;;;;;;;;;5008846;28;20097;-73
2023/07/01 09:39:50;;;;;;;6.90;4.68;;;;;;;;;;5025231;28;20030;-74
2023/07/01 09:42:19;;;;;;;5.40;4.55;;;;;;;;;;5019512;28;20093;-74
2023/07/01 09:45:07;;;;;;;6.22;4.45;;;;;;;;;;5032484;28;20143;-74
2023/07/01 09:47:33;;;;;;;6.80;4.07;;;;;;;;;;5032624;28;20484;-74
2023/07/01 09:50:01;;;;;;;5.55;4.10;;;;;;;;;;5027741;28;20014;-74
2023/07/01 09:52:34;;;;;;;5.65;3.40;;;;;;;;;;5012870;28;20115;-74
2023/07/01 09:55:03;;;;;;;6.43;3.88;;;;;;;;;;5012797;28;20018;-74
2023/07/01 09:57:29;;;;;;;4.88;3.50;;;;;;;;;;5011831;28;20046;-74
2023/07/01 09:59:56;;;;;;;5.82;3.95;;;;;;;;;;5019622;28;20029;-74
2023/07/01 10:02:22;;;;;;;7.05;4.25;;;;;;;;;;5012717;28;20030;-74
2023/07/01 10:04:48;;;;;;;5.82;3.90;;;;;;;;;;5018590;28;20104;-74
2023/07/01 10:07:14;;;;;;;7.00;4.40;;;;;;;;;;5012864;28;20448;-74
2023/07/01 10:09:47;;;;;;;7.45;4.07;;;;;;;;;;5018900;28;20041;-74
2023/07/01 10:12:17;;;;;;;7.05;3.97;;;;;;;;;;5031217;28;20029;-74
2023/07/01 10:14:47;;;;;;;6.03;4.47;;;;;;;;;;5026695;28;20030;-74
2023/07/01 10:17:14;;;;;;;6.13;4.20;;;;;;;;;;5032258;28;20360;-74
2023/07/01 10:19:46;;;;;;;6.47;4.40;;;;;;;;;;5020621;28;20018;-74
2023/07/01 10:22:29;;;;;;;7.00;4.25;;;;;;;;;;5012619;28;20069;-74
2023/07/01 10:25:06;;;;;;;6.88;4.60;;;;;;;;;;5012854;28;20018;-74
2023/07/01 10:27:44;;;;;;;6.75;4.20;;;;;;;;;;5012679;28;20024;-74
2023/07/01 10:30:12;;;;;;;7.80;4.53;;;;;;;;;;5008978;28;20022;-74
2023/07/01 10:32:38;;;;;;;8.10;4.90;;;;;;;;;;5018185;28;20029;-74
2023/07/01 10:35:04;;;;;;;6.22;4.63;;;;;;;;;;5012388;28;20104;-73
2023/07/01 10:37:31;;;;;;;8.85;5.03;;;;;;;;;;5013828;28;20114;-74
2023/07/01 10:39:57;;;;;;;11.00;5.20;;;;;;;;;;5005741;28;20014;-74
2023/07/01 10:42:33;;;;;;;8.07;4.47;;;;;;;;;;5015981;28;20026;-73
2023/07/01 10:45:11;;;;;;;9.20;4.43;;;;;;;;;;5016182;28;20018;-74
2023/07/01 10:47:43;;;;;;;6.50;4.30;;;;;;;;;;5027644;28;20032;-74
2023/07/01 10:50:09;;;;;;;5.80;4.00;;;;;;;;;;5016320;28;20026;-73
2023/07/01 10:52:59;;;;;;;5.88;3.28;;;;;;;;;;5016208;28;20026;-73
2023/07/01 10:55:39;;;;;;;6.07;3.70;;;;;;;;;;5008280;28;20049;-74
2023/07/01 10:58:21;;;;;;;5.85;3.38;;;;;;;;;;5015574;28;20496;-74
2023/07/01 11:00:49;;;;;;;6.72;3.75;;;;;;;;;;5011123;28;20049;-74
2023/07/01 11:03:42;;;;;;;7.65;3.67;;;;;;;;;;5016138;28;20100;-74
2023/07/01 11:06:12;;;;;;;4.70;2.70;;;;;;;;;;5000511;28;20042;-74
2023/07/01 11:08:38;;;;;;;;;;;;;;;;;;5016232;28;20105;-74
2023/07/01 11:11:04;;;;;;;3.92;2.70;;;;;;;;;;5015918;28;20008;-74
2023/07/01 11:13:30;;;;;;;3.20;2.40;;;;;;;;;;5015636;28;20052;-74
2023/07/01 11:16:06;;;;;;;4.40;2.40;;;;;;;;;;5026397;28;20048;-74
2023/07/01 11:18:51;;;;;;;4.88;2.85;;;;;;;;;;5030085;28;20022;-74
2023/07/01 11:21:21;;;;;;;6.25;3.45;;;;;;;;;;5028603;28;20108;-74
2023/07/01 11:24:07;;;;;;;4.47;2.90;;;;;;;;;;5006921;28;20030;-74
2023/07/01 11:26:33;;;;;;;4.63;2.50;;;;;;;;;;5017948;28;20044;-74
2023/07/01 11:28:59;;;;;;;4.32;2.70;;;;;;;;;;5024271;28;20026;-74
2023/07/01 11:31:26;;;;;;;3.72;2.70;;;;;;;;;;5033267;28;20368;-74
2023/07/01 11:33:53;;;;;;;3.08;2.78;;;;;;;;;;5023911;28;20104;-74
2023/07/01 11:36:20;;;;;;;4.05;2.70;;;;;;;;;;5015234;28;20041;-74
2023/07/01 11:38:47;;;;;;;4.18;2.90;;;;;;;;;;5015331;28;20028;-74
2023/07/01 11:41:17;;;;;;;3.10;2.40;;;;;;;;;;5015217;28;20113;-74
2023/07/01 11:43:46;;;;;;;2.58;2.38;;;;;;;;;;5027622;28;20025;-74
2023/07/01 11:46:13;;;;;;;3.53;2.60;;;;;;;;;;5034941;28;20032;-74
2023/07/01 11:48:42;;;;;;;2.97;2.08;;;;;;;;;;5010995;28;20487;-74
2023/07/01 11:51:08;;;;;;;2.93;2.20;;;;;;;;;;4996507;28;20034;-74
2023/07/01 11:53:37;;;;;;;3.45;2.20;;;;;;;;;;4995982;28;20314;-74
2023/07/01 11:56:03;;;;;;;3.13;2.60;;;;;;;;;;5027638;28;20029;-74
2023/07/01 11:58:31;;;;;;;3.65;2.70;;;;;;;;;;5014889;28;20050;-74
2023/07/01 12:00:57;;;;;;;4.57;2.63;;;;;;;;;;5015005;28;20030;-74
2023/07/01 12:03:23;;;;;;;3.00;2.08;;;;;;;;;;5014961;28;20026;-74
2023/07/01 12:05:49;;;;;;;2.25;1.40;;;;;;;;;;5022524;28;20029;-74
2023/07/01 12:08:15;;;;;;;1.95;1.20;;;;;;;;;;5033115;28;20029;-74
2023/07/01 12:10:41;;;;;;;1.48;1.20;;;;;;;;;;5020368;28;20025;-74
2023/07/01 12:13:08;;;;;;;2.72;1.40;;;;;;;;;;5033460;28;20032;-74
2023/07/01 12:15:51;;;;;;;3.40;1.40;;;;;;;;;;5014546;28;20062;-75
2023/07/01 12:18:27;;;;;;;5.07;1.80;;;;;;;;;;5014597;28;20026;-74
2023/07/01 12:20:56;;;;;;;4.85;2.33;;;;;;;;;;4997674;28;20601;-74
2023/07/01 12:23:23;;;;;;;3.20;1.90;;;;;;;;;;5000155;28;20092;-74
2023/07/01 12:25:49;;;;;;;3.25;2.60;;;;;;;;;;5014420;28;20038;-74
2023/07/01 12:28:16;;;;;;;3.60;2.80;;;;;;;;;;5015565;28;20381;-74
2023/07/01 12:30:43;;;;;;;2.53;2.00;;;;;;;;;;5026586;28;20041;-74
2023/07/01 12:33:09;;;;;;;5.32;2.80;;;;;;;;;;5032909;28;20021;-74
2023/07/01 12:35:35;;;;;;;3.60;2.70;;;;;;;;;;5028013;28;20061;-74
2023/07/01 12:38:03;;;;;;;3.35;2.58;;;;;;;;;;5014358;28;20376;-74
2023/07/01 12:40:29;;;;;;;4.80;1.90;;;;;;;;;;5014388;28;20049;-74
2023/07/01 12:42:55;;;;;;;4.97;2.08;;;;;;;;;;5014170;28;20381;-74
2023/07/01 12:45:21;;;;;;;2.05;1.90;;;;;;;;;;5014011;28;20040;-74
2023/07/01 12:47:47;;;;;;;3.38;2.33;;;;;;;;;;5004033;28;20065;-75
2023/07/01 12:50:13;;;;;;;3.38;2.88;;;;;;;;;;4994349;28;20054;-74
2023/07/01 12:52:39;;;;;;;3.42;2.40;;;;;;;;;;5016357;28;20028;-74
2023/07/01 12:55:09;;;;;;;2.70;2.50;;;;;;;;;;5033882;28;20079;-74
2023/07/01 12:57:36;;;;;;;3.17;2.88;;;;;;;;;;5025605;28;20053;-74
2023/07/01 13:00:03;;;;;;;4.22;2.85;;;;;;;;;;5028334;28;20029;-74
2023/07/01 13:02:29;;;;;;;6.07;3.45;;;;;;;;;;5025150;28;20029;-74
2023/07/01 13:05:02;;;;;;;4.95;3.05;;;;;;;;;;5028024;28;20033;-74
2023/07/01 13:07:29;;;;;;;6.35;3.65;;;;;;;;;;5013562;28;20034;-74
2023/07/01 13:09:58;;;;;;;4.82;3.30;;;;;;;;;;5014525;28;20029;-74
2023/07/01 13:12:25;;;;;;;4.90;3.22;;;;;;;;;;5024825;28;20026;-74
2023/07/01 13:14:51;;;;;;;6.93;3.42;;;;;;;;;;5019544;28;20049;-74
2023/07/01 13:17:35;;;;;;;5.43;3.40;;;;;;;;;;5024018;28;20053;-74
2023/07/01 13:20:03;;;;;;;3.58;2.88;;;;;;;;;;5027020;28;20575;-74
2023/07/01 13:22:29;;;;;;;5.82;3.00;;;;;;;;;;5018640;28;20025;-74
2023/07/01 13:24:55;;;;;;;3.97;2.53;;;;;;;;;;5016528;28;20057;-74
2023/07/01 13:27:21;;;;;;;4.93;2.63;;;;;;;;;;5030461;28;20048;-74
2023/07/01 13:29:47;;;;;;;6.15;3.30;;;;;;;;;;5020366;28;20026;-74
2023/07/01 13:32:13;;;;;;;8.48;3.00;;;;;;;;;;5014012;28;20022;-74
2023/07/01 13:34:41;;;;;;;4.15;2.80;;;;;;;;;;5025380;28;20108;-74
2023/07/01 13:37:10;;;;;;;3.70;2.50;;;;;;;;;;5013537;28;20033;-74
2023/07/01 13:39:36;;;;;;;4.85;2.60;;;;;;;;;;5022598;28;20460;-74
2023/07/01 13:42:02;;;;;;;3.97;2.00;;;;;;;;;;5019582;28;20056;-74
2023/07/01 13:44:29;;;;;;;4.20;2.17;;;;;;;;;;5033024;28;20456;-73
2023/07/01 13:46:56;;;;;;;5.10;1.88;;;;;;;;;;5015935;28;20069;-73
2023/07/01 13:49:26;;;;;;;3.25;1.63;;;;;;;;;;5023343;28;20105;-74
2023/07/01 13:51:53;;;;;;;5.18;1.65;;;;;;;;;;5015087;28;20022;-74
2023/07/01 13:54:22;;;;;;;3.20;1.38;;;;;;;;;;5023799;28;20488;-74
2023/07/01 13:56:48;;;;;;;2.33;1.27;;;;;;;;;;5032694;28;20128;-74
2023/07/01 13:59:15;;;;;;;3.92;1.38;;;;;;;;;;5013791;28;20124;-73
2023/07/01 14:01:47;;;;;;;3.25;1.27;;;;;;;;;;5022955;28;20500;-73
2023/07/01 14:04:13;;;;;;;7.45;1.40;;;;;;;;;;5027134;28;20022;-73
2023/07/01 14:06:39;;;;;;;2.90;1.50;;;;;;;;;;5012500;28;20038;-74
2023/07/01 14:09:06;;;;;;;4.18;1.65;;;;;;;;;;5030654;28;20550;-74
2023/07/01 14:11:32;;;;;;;3.92;1.25;;;;;;;;;;5020707;28;20703;-73
2023/07/01 14:13:58;;;;;;;6.35;1.55;;;;;;;;;;5017119;28;20445;-74
2023/07/01 14:16:25;;;;;;;2.17;1.30;;;;;;;;;;5032449;28;20025;-73
2023/07/01 14:18:52;;;;;;;2.67;1.60;;;;;;;;;;5026962;28;20080;-74
2023/07/01 14:21:18;;;;;;;3.65;1.40;;;;;;;;;;5011335;28;20053;-74
2023/07/01 14:23:45;;;;;;;2.25;1.25;;;;;;;;;;5013000;28;20022;-74
2023/07/01 14:26:17;;;;;;;5.20;1.60;;;;;;;;;;5012328;28;20041;-74
2023/07/01 14:28:43;;;;;;;2.45;1.25;;;;;;;;;;5005478;28;20048;-74
2023/07/01 14:31:13;;;;;;;3.30;1.30;;;;;;;;;;5019049;28;20022;-74
2023/07/01 14:33:39;;;;;;;5.22;1.13;;;;;;;;;;5016993;28;20480;-74
2023/07/01 14:36:08;;;;;;;2.63;1.02;;;;;;;;;;5019151;28;20026;-74
2023/07/01 14:38:37;;;;;;;1.92;0.80;;;;;;;;;;5012461;28;20041;-73
2023/07/01 14:41:03;;;;;;;2.70;0.70;;;;;;;;;;5012469;28;20057;-74
2023/07/01 14:43:29;;;;;;;1.98;0.95;;;;;;;;;;5010984;28;20073;-73
2023/07/01 14:45:55;;;;;;;3.80;1.20;;;;;;;;;;4998344;28;20525;-74